createdAt,value
2019-06-20T00:00:57.344Z,14.18
2019-06-20T00:03:29.365Z,13.43
2019-06-20T00:06:01.372Z,15.48
2019-06-20T00:08:33.512Z,17.52
2019-06-20T00:11:05.525Z,12.68
2019-06-20T00:13:37.570Z,13.72
2019-06-20T00:16:10.598Z,15.63
2019-06-20T00:18:42.702Z,14.73
2019-06-20T00:21:14.829Z,15.28
2019-06-20T00:23:46.855Z,14.65
2019-06-20T00:26:18.863Z,15.03
2019-06-20T00:28:50.959Z,13.20
2019-06-20T00:31:22.969Z,14.78
2019-06-20T00:33:54.991Z,15.03
2019-06-20T00:36:27.137Z,15.80
2019-06-20T00:38:59.180Z,15.70
2019-06-20T00:41:31.305Z,15.10
2019-06-20T00:44:03.416Z,13.30
2019-06-20T00:46:35.528Z,15.78
2019-06-20T00:49:07.660Z,12.63
2019-06-20T00:51:39.737Z,15.15
2019-06-20T00:54:11.842Z,12.28
2019-06-20T00:56:43.950Z,17.12
2019-06-20T00:59:16.096Z,13.30
2019-06-20T01:01:49.134Z,14.70
2019-06-20T01:04:21.360Z,13.70
2019-06-20T01:06:53.501Z,12.88
2019-06-20T01:09:25.640Z,16.95
2019-06-20T01:11:57.745Z,17.25
2019-06-20T01:14:29.753Z,15.80
2019-06-20T01:17:01.887Z,16.75
2019-06-20T01:19:34.008Z,17.15
2019-06-20T01:22:06.226Z,16.35
2019-06-20T01:24:38.341Z,18.37
2019-06-20T01:27:10.455Z,20.12
2019-06-20T01:29:42.559Z,17.20
2019-06-20T01:32:15.698Z,19.52
2019-06-20T01:34:47.816Z,21.23
2019-06-20T01:37:19.944Z,18.70
2019-06-20T01:39:52.069Z,19.67
2019-06-20T01:42:24.181Z,18.50
2019-06-20T01:44:56.133Z,19.70
2019-06-20T01:47:28.457Z,23.25
2019-06-20T01:50:00.585Z,20.08
2019-06-20T01:52:32.784Z,20.65
2019-06-20T01:55:05.403Z,20.90
2019-06-20T01:57:37.524Z,20.65
2019-06-20T02:00:09.589Z,17.65
2019-06-20T02:02:41.695Z,21.07
2019-06-20T02:05:13.827Z,20.90
2019-06-20T02:07:45.931Z,21.95
2019-06-20T02:10:19.017Z,21.52
2019-06-20T02:12:51.157Z,18.42
2019-06-20T02:15:23.280Z,23.42
2019-06-20T02:17:55.389Z,26.12
2019-06-20T02:20:47.935Z,18.17
2019-06-20T02:23:20.260Z,19.87
2019-06-20T02:25:52.408Z,19.20
2019-06-20T02:28:24.384Z,17.48
2019-06-20T02:30:56.504Z,18.55
2019-06-20T02:33:29.636Z,23.32
2019-06-20T02:36:01.773Z,19.30
2019-06-20T02:38:33.941Z,18.05
2019-06-20T02:41:06.076Z,18.15
2019-06-20T02:43:38.202Z,21.55
2019-06-20T02:46:10.322Z,15.88
2019-06-20T02:48:42.457Z,21.45
2019-06-20T02:51:14.904Z,22.37
2019-06-20T02:53:47.104Z,15.50
2019-06-20T02:56:19.244Z,18.80
2019-06-20T02:58:51.374Z,16.42
2019-06-20T03:01:23.478Z,16.20
2019-06-20T03:03:55.504Z,14.25
2019-06-20T03:06:27.536Z,15.48
2019-06-20T03:08:59.553Z,20.10
2019-06-20T03:11:32.437Z,17.85
2019-06-20T03:14:04.458Z,16.37
2019-06-20T03:16:36.587Z,19.37
2019-06-20T03:19:08.628Z,20.68
2019-06-20T03:21:40.845Z,23.07
2019-06-20T03:24:12.974Z,20.37
2019-06-20T03:26:45.010Z,24.05
2019-06-20T03:29:17.044Z,22.20
2019-06-20T03:31:50.161Z,18.23
2019-06-20T03:34:22.189Z,16.25
2019-06-20T03:36:54.291Z,17.02
2019-06-20T03:39:27.293Z,17.87
2019-06-20T03:41:59.302Z,18.07
2019-06-20T03:44:31.339Z,17.10
2019-06-20T03:47:03.370Z,16.07
2019-06-20T03:49:35.401Z,16.80
2019-06-20T03:52:07.426Z,11.55
2019-06-20T03:54:39.457Z,10.13
2019-06-20T03:57:11.580Z,9.78
2019-06-20T03:59:43.503Z,7.97
2019-06-20T04:02:15.456Z,7.37
2019-06-20T04:04:47.301Z,11.57
2019-06-20T04:07:19.398Z,14.55
2019-06-20T04:09:51.406Z,9.55
2019-06-20T04:12:23.928Z,11.43
2019-06-20T04:14:56.028Z,10.88
2019-06-20T04:17:28.145Z,13.38
2019-06-20T04:20:00.177Z,10.05
2019-06-20T04:22:32.287Z,10.43
2019-06-20T04:25:04.429Z,11.93
2019-06-20T04:27:36.459Z,12.93
2019-06-20T04:30:08.635Z,17.12
2019-06-20T04:32:40.617Z,12.35
2019-06-20T04:35:12.641Z,13.80
2019-06-20T04:37:44.572Z,6.70
2019-06-20T04:40:16.491Z,9.75
2019-06-20T04:42:48.404Z,11.60
2019-06-20T04:45:35.154Z,11.25
2019-06-20T04:48:01.621Z,8.80
2019-06-20T04:50:33.511Z,8.78
2019-06-20T04:53:05.427Z,11.85
2019-06-20T04:55:37.428Z,9.23
2019-06-20T04:58:09.348Z,8.98
2019-06-20T05:00:41.241Z,7.53
2019-06-20T05:03:13.243Z,10.60
2019-06-20T05:05:45.321Z,10.13
2019-06-20T05:08:17.444Z,8.80
2019-06-20T05:10:49.364Z,10.93
2019-06-20T05:13:21.397Z,11.28
2019-06-20T05:15:53.616Z,9.10
2019-06-20T05:18:27.199Z,9.75
2019-06-20T05:20:59.117Z,10.20
2019-06-20T05:23:31.181Z,10.55
2019-06-20T05:26:03.288Z,8.75
2019-06-20T05:28:35.230Z,9.40
2019-06-20T05:31:07.166Z,8.80
2019-06-20T05:33:39.113Z,9.30
2019-06-20T05:36:11.152Z,10.43
2019-06-20T05:38:43.205Z,12.03
2019-06-20T05:41:15.324Z,7.85
2019-06-20T05:43:47.361Z,10.53
2019-06-20T05:46:19.380Z,8.70
2019-06-20T05:48:51.301Z,9.88
2019-06-20T05:51:24.047Z,6.37
2019-06-20T05:53:56.090Z,8.70
2019-06-20T05:56:28.229Z,9.60
2019-06-20T05:59:00.089Z,6.90
2019-06-20T06:01:31.920Z,8.90
2019-06-20T06:04:03.759Z,11.50
2019-06-20T06:06:35.761Z,7.65
2019-06-20T06:09:07.992Z,7.05
2019-06-20T06:11:39.922Z,7.25
2019-06-20T06:14:11.825Z,8.03
2019-06-20T06:16:44.821Z,9.43
2019-06-20T06:19:16.765Z,9.05
2019-06-20T06:21:49.632Z,6.08
2019-06-20T06:24:21.590Z,8.48
2019-06-20T06:26:53.526Z,6.35
2019-06-20T06:29:25.468Z,11.10
2019-06-20T06:31:57.632Z,8.38
2019-06-20T06:34:29.538Z,5.53
2019-06-20T06:37:01.480Z,8.20
2019-06-20T06:39:33.411Z,6.00
2019-06-20T06:42:05.364Z,8.35
2019-06-20T06:44:37.296Z,5.03
2019-06-20T06:47:09.264Z,5.83
2019-06-20T06:49:41.206Z,7.70
2019-06-20T06:52:13.146Z,8.80
2019-06-20T06:54:45.048Z,4.17
2019-06-20T06:57:16.953Z,6.50
2019-06-20T06:59:48.866Z,8.90
2019-06-20T07:02:20.767Z,6.92
2019-06-20T07:04:52.718Z,6.92
2019-06-20T07:07:24.623Z,5.20
2019-06-20T07:09:56.551Z,5.12
2019-06-20T07:12:28.485Z,7.87
2019-06-20T07:15:00.454Z,5.70
2019-06-20T07:17:32.477Z,9.70
2019-06-20T07:20:06.376Z,5.25
2019-06-20T07:22:38.370Z,8.08
2019-06-20T07:25:18.688Z,7.45
2019-06-20T07:27:53.145Z,7.85
2019-06-20T07:30:28.158Z,9.53
2019-06-20T07:33:01.147Z,7.33
2019-06-20T07:35:33.051Z,5.87
2019-06-20T07:38:05.018Z,6.95
2019-06-20T07:40:37.336Z,6.80
2019-06-20T07:43:09.321Z,6.05
2019-06-20T07:45:41.253Z,8.58
2019-06-20T07:48:14.188Z,6.47
2019-06-20T07:50:46.445Z,3.60
2019-06-20T07:53:18.473Z,5.80
2019-06-20T07:55:50.559Z,5.62
2019-06-20T07:58:25.371Z,5.10
2019-06-20T08:00:57.472Z,5.55
2019-06-20T08:03:31.003Z,7.03
2019-06-20T08:06:02.961Z,6.12
2019-06-20T08:08:35.940Z,5.87
2019-06-20T08:11:07.929Z,4.80
2019-06-20T08:13:39.912Z,4.47
2019-06-20T08:16:11.896Z,6.00
2019-06-20T08:18:43.862Z,3.40
2019-06-20T08:21:15.811Z,6.60
2019-06-20T08:23:47.748Z,5.37
2019-06-20T08:26:19.694Z,3.98
2019-06-20T08:29:07.380Z,7.67
2019-06-20T08:31:25.235Z,7.50
2019-06-20T08:33:57.674Z,6.15
2019-06-20T08:36:30.912Z,6.15
2019-06-20T08:39:02.857Z,3.72
2019-06-20T08:41:36.098Z,8.55
2019-06-20T08:44:07.976Z,6.95
2019-06-20T08:46:39.885Z,10.85
2019-06-20T08:49:11.929Z,5.03
2019-06-20T08:51:43.846Z,6.95
2019-06-20T08:54:15.804Z,5.45
2019-06-20T08:56:47.738Z,4.83
2019-06-20T08:59:24.452Z,7.30
2019-06-20T09:01:56.542Z,5.25
2019-06-20T09:04:27.734Z,7.75
2019-06-20T09:07:00.604Z,7.15
2019-06-20T09:09:32.944Z,5.53
2019-06-20T09:12:05.164Z,7.00
2019-06-20T09:14:37.278Z,5.45
2019-06-20T09:17:09.239Z,2.45
2019-06-20T09:19:41.156Z,7.87
2019-06-20T09:22:13.064Z,5.80
2019-06-20T09:24:44.986Z,6.12
2019-06-20T09:27:17.099Z,6.67
2019-06-20T09:29:49.021Z,5.37
2019-06-20T09:32:21.193Z,6.17
2019-06-20T09:34:54.454Z,4.83
2019-06-20T09:37:26.554Z,4.92
2019-06-20T09:39:59.207Z,2.87
2019-06-20T09:42:32.253Z,5.55
2019-06-20T09:45:06.341Z,3.08
2019-06-20T09:47:38.284Z,6.28
2019-06-20T09:50:12.344Z,4.25
2019-06-20T09:52:44.281Z,3.65
2019-06-20T09:55:16.238Z,4.97
2019-06-20T09:57:49.223Z,2.90
2019-06-20T10:00:24.862Z,5.15
2019-06-20T10:02:57.792Z,4.92
2019-06-20T10:05:29.959Z,4.42
2019-06-20T10:08:01.935Z,3.37
2019-06-20T10:10:33.882Z,8.65
2019-06-20T10:13:05.871Z,3.08
2019-06-20T10:15:38.016Z,2.65
2019-06-20T10:18:09.936Z,6.35
2019-06-20T10:20:41.846Z,11.05
2019-06-20T10:23:13.880Z,5.45
2019-06-20T10:25:47.470Z,4.17
2019-06-20T10:28:19.413Z,3.98
2019-06-20T10:30:51.364Z,4.08
2019-06-20T10:33:23.254Z,2.50
2019-06-20T10:35:55.185Z,4.60
2019-06-20T10:38:27.160Z,4.58
2019-06-20T10:41:00.129Z,6.03
2019-06-20T10:43:32.191Z,3.77
2019-06-20T10:46:04.110Z,2.37
2019-06-20T10:48:36.037Z,6.85
2019-06-20T10:51:26.245Z,4.30
2019-06-20T10:53:58.254Z,3.63
2019-06-20T10:56:31.166Z,3.67
2019-06-20T10:59:03.289Z,3.50
2019-06-20T11:01:35.226Z,3.02
2019-06-20T11:04:07.151Z,5.45
2019-06-20T11:06:40.044Z,3.52
2019-06-20T11:09:12.613Z,4.45
2019-06-20T11:11:44.782Z,5.70
2019-06-20T11:14:16.829Z,3.72
2019-06-20T11:16:50.603Z,5.75
2019-06-20T11:19:22.508Z,3.92
2019-06-20T11:21:54.372Z,3.12
2019-06-20T11:24:26.314Z,3.62
2019-06-20T11:26:58.231Z,4.45
2019-06-20T11:29:30.169Z,3.77
2019-06-20T11:32:02.107Z,4.22
2019-06-20T11:34:34.103Z,5.97
2019-06-20T11:37:06.024Z,5.50
2019-06-20T11:39:38.915Z,5.12
2019-06-20T11:42:11.011Z,4.42
2019-06-20T11:44:43.116Z,3.85
2019-06-20T11:47:15.178Z,5.15
2019-06-20T11:49:47.108Z,3.50
2019-06-20T11:52:19.019Z,5.97
2019-06-20T11:54:50.949Z,3.17
2019-06-20T11:57:22.956Z,3.80
2019-06-20T11:59:54.975Z,4.80
2019-06-20T12:02:26.913Z,3.12
2019-06-20T12:04:58.834Z,3.55
2019-06-20T12:07:30.755Z,4.83
2019-06-20T12:10:04.467Z,6.55
2019-06-20T12:12:36.413Z,6.10
2019-06-20T12:15:09.141Z,7.55
2019-06-20T12:17:43.375Z,3.02
2019-06-20T12:20:16.621Z,3.62
2019-06-20T12:22:50.508Z,3.08
2019-06-20T12:25:23.396Z,5.45
2019-06-20T12:27:55.297Z,5.75
2019-06-20T12:30:27.140Z,3.45
2019-06-20T12:32:59.042Z,5.47
2019-06-20T12:35:30.949Z,4.58
2019-06-20T12:38:02.886Z,6.00
2019-06-20T12:40:34.781Z,4.28
2019-06-20T12:43:06.720Z,4.37
2019-06-20T12:45:40.007Z,2.47
2019-06-20T12:48:12.203Z,4.70
2019-06-20T12:50:45.089Z,5.55
2019-06-20T12:53:17.150Z,5.10
2019-06-20T12:55:50.697Z,6.22
2019-06-20T12:58:23.859Z,4.28
2019-06-20T13:00:56.179Z,4.35
2019-06-20T13:03:28.199Z,6.22
2019-06-20T13:06:00.230Z,2.77
2019-06-20T13:08:32.155Z,4.15
2019-06-20T13:11:04.090Z,2.25
2019-06-20T13:13:38.758Z,3.65
2019-06-20T13:16:10.230Z,4.40
2019-06-20T13:18:44.480Z,3.45
2019-06-20T13:21:18.954Z,3.95
2019-06-20T13:23:50.172Z,5.37
2019-06-20T13:26:22.095Z,3.33
2019-06-20T13:29:03.770Z,3.95
2019-06-20T13:31:27.564Z,5.28
2019-06-20T13:33:59.485Z,6.47
2019-06-20T13:36:31.436Z,7.17
2019-06-20T13:39:05.323Z,3.10
2019-06-20T13:41:40.786Z,7.28
2019-06-20T13:44:14.382Z,2.95
2019-06-20T13:46:46.736Z,3.45
2019-06-20T13:49:18.690Z,3.30
2019-06-20T13:51:50.626Z,3.12
2019-06-20T13:54:22.568Z,2.72
2019-06-20T13:56:54.500Z,5.37
2019-06-20T13:59:26.390Z,4.75
2019-06-20T14:02:06.658Z,3.70
2019-06-20T14:04:32.055Z,4.67
2019-06-20T14:07:03.967Z,4.83
2019-06-20T14:09:36.025Z,5.85
2019-06-20T14:12:11.357Z,5.78
2019-06-20T14:14:44.009Z,3.90
2019-06-20T14:17:15.981Z,3.55
2019-06-20T14:19:48.674Z,3.92
2019-06-20T14:22:20.690Z,3.27
2019-06-20T14:24:53.707Z,2.27
2019-06-20T14:27:25.688Z,4.53
2019-06-20T14:29:57.636Z,3.40
2019-06-20T14:32:29.589Z,2.45
2019-06-20T14:35:01.524Z,4.10
2019-06-20T14:37:33.443Z,5.42
2019-06-20T14:40:07.041Z,4.53
2019-06-20T14:42:38.957Z,5.83
2019-06-20T14:45:10.898Z,5.83
2019-06-20T14:47:43.926Z,3.95
2019-06-20T14:50:16.879Z,3.55
2019-06-20T14:52:50.002Z,2.98
2019-06-20T14:55:23.519Z,4.70
2019-06-20T14:57:55.598Z,2.75
2019-06-20T15:00:27.582Z,5.40
2019-06-20T15:02:59.522Z,6.17
2019-06-20T15:05:34.736Z,3.65
2019-06-20T15:08:06.041Z,7.78
2019-06-20T15:10:38.837Z,3.22
2019-06-20T15:13:10.801Z,6.25
2019-06-20T15:15:42.708Z,2.75
2019-06-20T15:18:14.650Z,5.28
2019-06-20T15:20:46.954Z,5.03
2019-06-20T15:23:20.293Z,3.50
2019-06-20T15:25:52.278Z,4.50
2019-06-20T15:28:24.217Z,6.22
2019-06-20T15:30:57.281Z,4.12
2019-06-20T15:33:29.374Z,4.50
2019-06-20T15:36:01.251Z,4.55
2019-06-20T15:38:33.178Z,6.95
2019-06-20T15:41:05.083Z,4.40
2019-06-20T15:43:36.987Z,7.42
2019-06-20T15:46:08.904Z,44.58
2019-06-20T15:48:40.957Z,26.75
2019-06-20T15:51:12.982Z,9.90
2019-06-20T15:53:44.897Z,14.25
2019-06-20T15:56:16.913Z,14.83
2019-06-20T15:58:48.932Z,9.55
2019-06-20T16:01:20.842Z,3.60
2019-06-20T16:03:52.765Z,6.90
2019-06-20T16:06:25.666Z,5.00
2019-06-20T16:08:57.581Z,3.72
2019-06-20T16:11:29.511Z,5.20
2019-06-20T16:14:01.425Z,6.92
2019-06-20T16:16:33.341Z,6.87
2019-06-20T16:19:05.252Z,9.28
2019-06-20T16:21:37.175Z,8.30
2019-06-20T16:24:12.458Z,6.83
2019-06-20T16:26:42.751Z,4.50
2019-06-20T16:29:14.704Z,4.00
2019-06-20T16:31:46.621Z,7.53
2019-06-20T16:34:18.557Z,5.03
2019-06-20T16:36:50.469Z,6.90
2019-06-20T16:39:22.456Z,5.00
2019-06-20T16:41:54.390Z,5.53
2019-06-20T16:44:26.294Z,5.42
2019-06-20T16:46:58.227Z,10.15
2019-06-20T16:49:30.381Z,10.00
2019-06-20T16:52:02.457Z,6.62
2019-06-20T16:54:34.408Z,7.55
2019-06-20T16:57:06.338Z,7.45
2019-06-20T16:59:38.268Z,6.10
2019-06-20T17:02:10.196Z,6.53
2019-06-20T17:04:42.085Z,6.50
2019-06-20T17:07:14.034Z,6.92
2019-06-20T17:09:45.924Z,6.42
2019-06-20T17:12:17.827Z,6.25
2019-06-20T17:14:49.748Z,7.35
2019-06-20T17:17:21.658Z,7.87
2019-06-20T17:19:53.586Z,8.00
2019-06-20T17:22:25.557Z,9.05
2019-06-20T17:24:57.494Z,25.27
2019-06-20T17:27:29.488Z,42.38
2019-06-20T17:30:01.870Z,75.25
2019-06-20T17:32:34.052Z,96.40
2019-06-20T17:35:07.682Z,74.45
2019-06-20T17:37:39.693Z,109.00
2019-06-20T17:40:12.223Z,83.37
2019-06-20T17:42:45.239Z,24.40
2019-06-20T17:45:17.366Z,29.30
2019-06-20T17:47:49.382Z,12.80
2019-06-20T17:50:21.399Z,19.50
2019-06-20T17:52:53.427Z,47.25
2019-06-20T17:55:25.453Z,33.65
2019-06-20T17:57:57.477Z,28.67
2019-06-20T18:00:29.413Z,82.82
2019-06-20T18:03:01.451Z,76.42
2019-06-20T18:05:33.495Z,90.22
2019-06-20T18:08:14.520Z,46.00
2019-06-20T18:10:39.250Z,77.53
2019-06-20T18:13:11.352Z,69.15
2019-06-20T18:15:43.366Z,21.52
2019-06-20T18:18:15.459Z,19.65
2019-06-20T18:20:47.482Z,14.10
2019-06-20T18:23:19.619Z,15.43
2019-06-20T18:25:51.687Z,22.58
2019-06-20T18:28:23.685Z,21.62
2019-06-20T18:30:55.702Z,20.80
2019-06-20T18:33:27.757Z,20.80
2019-06-20T18:35:59.789Z,16.15
2019-06-20T18:38:31.839Z,24.10
2019-06-20T18:41:03.908Z,25.40
2019-06-20T18:43:35.914Z,24.35
2019-06-20T18:46:07.942Z,21.52
2019-06-20T18:48:40.008Z,18.95
2019-06-20T18:51:13.189Z,18.67
2019-06-20T18:53:45.356Z,24.15
2019-06-20T18:56:17.386Z,20.88
2019-06-20T18:58:49.521Z,22.93
2019-06-20T19:01:21.577Z,21.17
2019-06-20T19:03:53.619Z,26.07
2019-06-20T19:06:35.610Z,25.23
2019-06-20T19:08:59.455Z,28.20
2019-06-20T19:11:33.105Z,32.08
2019-06-20T19:14:05.217Z,51.23
2019-06-20T19:16:37.185Z,58.40
2019-06-20T19:19:09.178Z,49.13
2019-06-20T19:21:41.228Z,49.53
2019-06-20T19:24:14.440Z,51.60
2019-06-20T19:26:46.458Z,55.48
2019-06-20T19:29:18.556Z,54.83
2019-06-20T19:31:50.606Z,51.48
2019-06-20T19:34:22.650Z,52.65
2019-06-20T19:36:54.789Z,58.73
2019-06-20T19:39:26.797Z,53.35
2019-06-20T19:41:58.854Z,54.55
2019-06-20T19:44:31.014Z,52.85
2019-06-20T19:47:03.060Z,48.08
2019-06-20T19:49:35.082Z,51.15
2019-06-20T19:52:07.089Z,51.92
2019-06-20T19:54:39.102Z,53.80
2019-06-20T19:57:11.121Z,47.00
2019-06-20T19:59:46.039Z,49.75
2019-06-20T20:02:16.873Z,56.53
2019-06-20T20:04:48.838Z,54.58
2019-06-20T20:07:20.963Z,55.52
2019-06-20T20:09:52.995Z,58.75
2019-06-20T20:12:25.036Z,51.70
2019-06-20T20:14:57.056Z,54.05
2019-06-20T20:17:29.111Z,56.83
2019-06-20T20:20:07.653Z,53.63
2019-06-20T20:22:39.638Z,54.58
2019-06-20T20:25:11.785Z,58.30
2019-06-20T20:27:43.831Z,51.13
2019-06-20T20:30:15.837Z,54.73
2019-06-20T20:32:47.956Z,53.20
2019-06-20T20:35:34.511Z,54.65
2019-06-20T20:37:54.820Z,53.30
2019-06-20T20:40:27.853Z,50.35
2019-06-20T20:42:59.901Z,46.90
2019-06-20T20:45:31.940Z,49.40
2019-06-20T20:48:04.215Z,51.63
2019-06-20T20:50:36.180Z,43.80
2019-06-20T20:53:08.232Z,43.15
2019-06-20T20:55:40.280Z,46.75
2019-06-20T20:58:12.320Z,40.88
2019-06-20T21:00:51.825Z,40.83
2019-06-20T21:03:23.959Z,41.55
2019-06-20T21:05:57.052Z,44.25
2019-06-20T21:08:32.842Z,43.10
2019-06-20T21:11:03.819Z,39.45
2019-06-20T21:13:35.809Z,36.60
2019-06-20T21:16:07.831Z,38.17
2019-06-20T21:18:39.863Z,43.00
2019-06-20T21:21:11.977Z,39.70
2019-06-20T21:23:43.988Z,38.65
2019-06-20T21:26:16.056Z,33.65
2019-06-20T21:28:48.084Z,32.65
2019-06-20T21:31:20.127Z,31.05
2019-06-20T21:33:54.482Z,30.37
2019-06-20T21:36:25.976Z,32.58
2019-06-20T21:38:58.129Z,34.30
2019-06-20T21:41:30.155Z,34.27
2019-06-20T21:44:02.185Z,35.78
2019-06-20T21:46:34.240Z,36.40
2019-06-20T21:49:06.279Z,32.73
2019-06-20T21:51:38.315Z,35.43
2019-06-20T21:54:10.373Z,30.17
2019-06-20T21:56:42.401Z,34.18
2019-06-20T21:59:15.330Z,32.45
2019-06-20T22:01:48.529Z,33.85
2019-06-20T22:04:21.861Z,33.53
2019-06-20T22:06:53.909Z,31.42
2019-06-20T22:09:25.940Z,33.38
2019-06-20T22:11:57.958Z,34.08
2019-06-20T22:14:32.432Z,43.92
2019-06-20T22:17:03.683Z,42.40
2019-06-20T22:19:35.833Z,40.92
2019-06-20T22:22:07.891Z,43.70
2019-06-20T22:24:39.942Z,34.13
2019-06-20T22:27:11.970Z,31.85
2019-06-20T22:29:43.979Z,32.67
2019-06-20T22:32:16.013Z,28.15
2019-06-20T22:34:48.044Z,30.92
2019-06-20T22:37:20.177Z,32.55
2019-06-20T22:39:52.336Z,33.02
2019-06-20T22:42:24.373Z,34.85
2019-06-20T22:44:56.415Z,29.85
2019-06-20T22:47:28.578Z,29.45
2019-06-20T22:50:00.598Z,22.35
2019-06-20T22:52:32.629Z,28.17
2019-06-20T22:55:05.771Z,28.00
2019-06-20T22:57:37.828Z,29.57
2019-06-20T23:00:09.882Z,28.52
2019-06-20T23:02:41.920Z,25.88
2019-06-20T23:05:14.057Z,28.40
2019-06-20T23:07:46.191Z,26.55
2019-06-20T23:10:18.228Z,30.17
2019-06-20T23:12:50.263Z,24.18
2019-06-20T23:15:22.360Z,27.37
2019-06-20T23:17:54.410Z,26.37
2019-06-20T23:20:26.416Z,24.70
2019-06-20T23:22:58.445Z,27.00
2019-06-20T23:25:30.607Z,23.45
2019-06-20T23:28:02.559Z,22.17
2019-06-20T23:30:34.551Z,24.60
2019-06-20T23:33:06.597Z,23.15
2019-06-20T23:35:38.626Z,24.72
2019-06-20T23:38:10.663Z,23.73
2019-06-20T23:40:42.897Z,23.02
2019-06-20T23:43:14.930Z,21.25
2019-06-20T23:45:47.018Z,25.68
2019-06-20T23:48:19.066Z,21.17
2019-06-20T23:50:51.095Z,20.30
2019-06-20T23:53:27.871Z,25.80
2019-06-20T23:55:59.884Z,24.87
2019-06-20T23:58:31.927Z,22.77
